createdAt,value
2022-08-16T00:01:40.553Z,99135.06
2022-08-16T00:04:29.315Z,99139.41
2022-08-16T00:07:17.312Z,99134.09
2022-08-16T00:10:08.195Z,99136.69
2022-08-16T00:13:10.388Z,99133.94
2022-08-16T00:15:58.350Z,99125.28
2022-08-16T00:18:46.277Z,99140.84
2022-08-16T00:21:35.463Z,99139.34
2022-08-16T00:24:32.389Z,99145.19
2022-08-16T00:27:21.858Z,99143.13
2022-08-16T00:30:19.383Z,99146.25
2022-08-16T00:33:16.668Z,99150.34
2022-08-16T00:36:04.869Z,99153.00
2022-08-16T00:38:53.078Z,99152.47
2022-08-16T00:41:46.915Z,99159.22
2022-08-16T00:44:37.976Z,99150.63
2022-08-16T00:47:27.171Z,99158.53
2022-08-16T00:50:36.278Z,99153.44
2022-08-16T00:53:24.696Z,99156.84
2022-08-16T00:56:56.003Z,99151.09
2022-08-16T00:59:28.895Z,99164.06
2022-08-16T01:02:31.920Z,99161.09
2022-08-16T01:05:24.007Z,99162.63
2022-08-16T01:08:35.862Z,99167.72
2022-08-16T01:11:25.559Z,99162.97
2022-08-16T01:14:25.101Z,99158.66
2022-08-16T01:17:19.986Z,99161.44
2022-08-16T01:20:24.610Z,99154.34
2022-08-16T01:23:26.801Z,99158.66
2022-08-16T01:26:36.706Z,99142.34
2022-08-16T01:29:56.685Z,99158.34
2022-08-16T01:32:43.693Z,99161.22
2022-08-16T01:35:59.526Z,99153.31
2022-08-16T01:38:56.837Z,99154.34
2022-08-16T01:41:45.977Z,99128.47
2022-08-16T01:44:37.825Z,99136.06
2022-08-16T01:47:27.609Z,99143.38
2022-08-16T01:50:41.867Z,99141.78
2022-08-16T01:53:28.449Z,99143.31
2022-08-16T01:56:24.511Z,99152.47
2022-08-16T01:59:15.611Z,99148.13
2022-08-16T02:02:27.052Z,99156.13
2022-08-16T02:05:13.885Z,99151.28
2022-08-16T02:08:04.599Z,99162.28
2022-08-16T02:10:54.365Z,99158.00
2022-08-16T02:13:42.302Z,99153.97
2022-08-16T02:16:30.185Z,99156.78
2022-08-16T02:19:19.829Z,99144.38
2022-08-16T02:22:33.861Z,99153.91
2022-08-16T02:25:21.062Z,99155.50
2022-08-16T02:28:08.913Z,99147.69
2022-08-16T02:31:00.277Z,99150.28
2022-08-16T02:33:50.759Z,99135.38
2022-08-16T02:36:48.221Z,99150.59
2022-08-16T02:39:38.068Z,99154.38
2022-08-16T02:42:29.294Z,99153.38
2022-08-16T02:45:19.405Z,99164.84
2022-08-16T02:48:28.257Z,99158.75
2022-08-16T02:51:16.663Z,99148.06
2022-08-16T02:54:06.890Z,99154.22
2022-08-16T02:56:56.435Z,99159.06
2022-08-16T02:59:45.073Z,99163.38
2022-08-16T03:02:33.149Z,99154.44
2022-08-16T03:05:21.411Z,99160.56
2022-08-16T03:08:50.874Z,99168.22
2022-08-16T03:11:20.602Z,99156.03
2022-08-16T03:14:11.486Z,99127.38
2022-08-16T03:17:01.884Z,99155.84
2022-08-16T03:19:59.537Z,99139.38
2022-08-16T03:22:48.462Z,99158.41
2022-08-16T03:25:43.236Z,99155.88
2022-08-16T03:28:32.695Z,99156.63
2022-08-16T03:31:20.604Z,99159.97
2022-08-16T03:34:08.890Z,99157.69
2022-08-16T03:36:58.082Z,99169.19
2022-08-16T03:39:46.306Z,99163.84
2022-08-16T03:43:02.149Z,99171.75
2022-08-16T03:45:45.069Z,99166.41
2022-08-16T03:48:40.392Z,99164.22
2022-08-16T03:51:29.093Z,99161.59
2022-08-16T03:54:17.144Z,99171.03
2022-08-16T03:57:05.584Z,99159.59
2022-08-16T03:59:59.948Z,99164.44
2022-08-16T04:02:48.282Z,99161.09
2022-08-16T04:05:44.255Z,99163.19
2022-08-16T04:08:34.766Z,99171.81
2022-08-16T04:11:27.402Z,99156.31
2022-08-16T04:14:31.118Z,99163.41
2022-08-16T04:17:21.275Z,99164.19
2022-08-16T04:20:23.829Z,99170.53
2022-08-16T04:23:19.641Z,99172.59
2022-08-16T04:26:08.072Z,99178.47
2022-08-16T04:29:16.254Z,99175.41
2022-08-16T04:32:09.343Z,99181.25
2022-08-16T04:35:00.223Z,99166.25
2022-08-16T04:37:53.712Z,99177.44
2022-08-16T04:40:42.138Z,99167.25
2022-08-16T04:43:30.039Z,99179.22
2022-08-16T04:46:29.937Z,99177.91
2022-08-16T04:49:26.881Z,99173.59
2022-08-16T04:52:35.074Z,99175.09
2022-08-16T04:55:32.000Z,99184.97
2022-08-16T04:58:44.646Z,99167.13
2022-08-16T05:01:58.878Z,99184.84
2022-08-16T05:04:43.922Z,99184.53
2022-08-16T05:07:32.331Z,99190.16
2022-08-16T05:10:22.792Z,99181.94
2022-08-16T05:13:15.605Z,99195.84
2022-08-16T05:16:04.917Z,99177.06
2022-08-16T05:18:56.580Z,99212.50
2022-08-16T05:21:44.824Z,99217.06
2022-08-16T05:24:34.595Z,99211.66
2022-08-16T05:27:23.118Z,99202.47
2022-08-16T05:30:34.338Z,99223.63
2022-08-16T05:33:21.559Z,99202.91
2022-08-16T05:36:14.334Z,99200.50
2022-08-16T05:39:03.817Z,99214.66
2022-08-16T05:41:52.793Z,99223.41
2022-08-16T05:44:40.732Z,99220.94
2022-08-16T05:47:33.004Z,99233.59
2022-08-16T05:50:34.084Z,99231.94
2022-08-16T05:53:24.130Z,99224.94
2022-08-16T05:56:12.924Z,99227.88
2022-08-16T05:59:10.936Z,99235.03
2022-08-16T06:01:59.354Z,99234.69
2022-08-16T06:04:49.775Z,99240.47
2022-08-16T06:07:42.254Z,99231.72
2022-08-16T06:10:34.691Z,99239.22
2022-08-16T06:13:26.349Z,99237.19
2022-08-16T06:16:27.370Z,99244.38
2022-08-16T06:19:19.519Z,99249.56
2022-08-16T06:22:37.649Z,99251.41
2022-08-16T06:25:36.221Z,99252.22
2022-08-16T06:28:36.501Z,99256.53
2022-08-16T06:31:28.382Z,99239.66
2022-08-16T06:34:54.833Z,99246.81
2022-08-16T06:37:36.952Z,99254.31
2022-08-16T06:40:33.633Z,99264.19
2022-08-16T06:43:27.715Z,99262.25
2022-08-16T06:46:39.671Z,99256.41
2022-08-16T06:49:31.390Z,99246.63
2022-08-16T06:52:59.732Z,99260.84
2022-08-16T06:55:38.119Z,99250.13
2022-08-16T06:58:31.373Z,99238.03
2022-08-16T07:01:44.844Z,99251.84
2022-08-16T07:04:36.981Z,99256.94
2022-08-16T07:07:34.226Z,99259.22
2022-08-16T07:10:27.603Z,99259.00
2022-08-16T07:13:43.787Z,99266.72
2022-08-16T07:16:30.534Z,99245.28
2022-08-16T07:19:22.550Z,99251.06
2022-08-16T07:22:39.231Z,99264.13
2022-08-16T07:25:32.128Z,99265.47
2022-08-16T07:28:24.788Z,99264.13
2022-08-16T07:31:18.548Z,99258.84
2022-08-16T07:34:10.150Z,99260.88
2022-08-16T07:37:05.626Z,99263.91
2022-08-16T07:40:10.942Z,99259.47
2022-08-16T07:43:04.000Z,99264.56
2022-08-16T07:45:54.646Z,99266.56
2022-08-16T07:48:47.499Z,99257.13
2022-08-16T07:51:40.254Z,99257.69
2022-08-16T07:54:32.014Z,99258.34
2022-08-16T07:57:24.272Z,99264.47
2022-08-16T08:00:18.805Z,99274.47
2022-08-16T08:03:12.135Z,99274.56
2022-08-16T08:06:05.155Z,99274.22
2022-08-16T08:09:03.855Z,99277.78
2022-08-16T08:12:00.864Z,99284.69
2022-08-16T08:14:56.712Z,99283.16
2022-08-16T08:17:50.411Z,99269.28
2022-08-16T08:20:45.326Z,99283.50
2022-08-16T08:23:52.122Z,99280.06
2022-08-16T08:26:44.811Z,99276.53
2022-08-16T08:29:42.615Z,99278.22
2022-08-16T08:32:57.254Z,99271.91
2022-08-16T08:35:45.972Z,99269.09
2022-08-16T08:38:43.569Z,99253.94
2022-08-16T08:41:36.578Z,99265.28
2022-08-16T08:44:30.579Z,99265.72
2022-08-16T08:47:23.457Z,99274.59
2022-08-16T08:50:31.742Z,99270.06
2022-08-16T08:53:29.951Z,99267.09
2022-08-16T08:56:25.314Z,99262.50
2022-08-16T08:59:20.421Z,99267.13
2022-08-16T09:02:16.191Z,99260.41
2022-08-16T09:05:15.195Z,99275.81
2022-08-16T09:08:06.296Z,99267.00
2022-08-16T09:11:03.164Z,99275.56
2022-08-16T09:13:55.563Z,99273.34
2022-08-16T09:17:00.814Z,99276.66
2022-08-16T09:19:59.407Z,99271.59
2022-08-16T09:22:52.626Z,99272.56
2022-08-16T09:25:44.667Z,99283.44
2022-08-16T09:29:06.743Z,99266.72
2022-08-16T09:31:53.607Z,99273.41
2022-08-16T09:34:45.928Z,99275.63
2022-08-16T09:37:37.365Z,99279.78
2022-08-16T09:40:32.487Z,99265.94
2022-08-16T09:44:00.884Z,99275.75
2022-08-16T09:46:49.669Z,99266.47
2022-08-16T09:49:43.650Z,99270.53
2022-08-16T09:52:44.505Z,99277.84
2022-08-16T09:55:44.428Z,99268.50
2022-08-16T09:58:40.513Z,99264.31
2022-08-16T10:01:36.422Z,99260.53
2022-08-16T10:04:30.273Z,99265.53
2022-08-16T10:07:44.251Z,99274.28
2022-08-16T10:10:36.522Z,99261.50
2022-08-16T10:13:28.181Z,99272.25
2022-08-16T10:16:21.828Z,99274.81
2022-08-16T10:19:14.178Z,99268.13
2022-08-16T10:22:13.035Z,99259.50
2022-08-16T10:25:04.793Z,99260.88
2022-08-16T10:28:27.799Z,99263.28
2022-08-16T10:31:16.700Z,99262.59
2022-08-16T10:34:31.225Z,99259.19
2022-08-16T10:37:18.897Z,99263.31
2022-08-16T10:40:28.616Z,99264.44
2022-08-16T10:43:22.341Z,99256.72
2022-08-16T10:46:33.808Z,99266.22
2022-08-16T10:49:27.520Z,99271.00
2022-08-16T10:52:20.559Z,99262.88
2022-08-16T10:58:34.264Z,99254.59
2022-08-16T11:01:43.906Z,99247.75
2022-08-16T11:05:06.033Z,99257.88
2022-08-16T11:07:55.038Z,99267.53
2022-08-16T11:11:06.536Z,99253.56
2022-08-16T11:14:10.704Z,99261.97
2022-08-16T11:17:10.402Z,99259.59
2022-08-16T11:20:41.915Z,99255.06
2022-08-16T11:23:15.727Z,99251.00
2022-08-16T11:26:16.410Z,99261.38
2022-08-16T11:29:17.544Z,99266.03
2022-08-16T11:32:11.377Z,99263.50
2022-08-16T11:35:14.240Z,99264.47
2022-08-16T11:38:47.349Z,99272.41
2022-08-16T11:41:29.499Z,99283.38
2022-08-16T11:44:52.051Z,99275.41
2022-08-16T11:47:35.669Z,99271.28
2022-08-16T11:50:26.413Z,99267.34
2022-08-16T11:53:18.978Z,99258.59
2022-08-16T11:56:10.030Z,99258.81
2022-08-16T11:59:06.991Z,99260.53
2022-08-16T12:02:04.270Z,99261.81
2022-08-16T12:05:15.067Z,99262.88
2022-08-16T12:08:06.672Z,99269.53
2022-08-16T12:11:02.428Z,99271.66
2022-08-16T12:13:53.687Z,99266.25
2022-08-16T12:16:48.574Z,99259.91
2022-08-16T12:19:40.195Z,99251.97
2022-08-16T12:22:31.113Z,99258.53
2022-08-16T12:25:26.024Z,99263.47
2022-08-16T12:28:25.345Z,99246.84
2022-08-16T12:31:28.449Z,99251.38
2022-08-16T12:34:28.981Z,99252.13
2022-08-16T12:37:21.692Z,99247.22
2022-08-16T12:40:24.065Z,99252.41
2022-08-16T12:43:18.176Z,99254.25
2022-08-16T12:46:13.665Z,99233.50
2022-08-16T12:49:08.448Z,99244.88
2022-08-16T12:52:01.444Z,99243.16
2022-08-16T12:54:56.520Z,99247.88
2022-08-16T12:57:58.149Z,99253.66
2022-08-16T13:00:49.637Z,99245.09
2022-08-16T13:03:41.029Z,99252.34
2022-08-16T13:06:33.641Z,99242.06
2022-08-16T13:09:28.760Z,99246.47
2022-08-16T13:12:25.034Z,99239.47
2022-08-16T13:15:21.992Z,99240.81
2022-08-16T13:18:27.241Z,99239.69
2022-08-16T13:21:25.758Z,99235.34
2022-08-16T13:24:16.249Z,99238.09
2022-08-16T13:27:10.460Z,99234.59
2022-08-16T13:30:01.055Z,99219.63
2022-08-16T13:32:53.344Z,99230.84
2022-08-16T13:35:55.778Z,99224.50
2022-08-16T13:38:49.844Z,99228.38
2022-08-16T13:41:41.902Z,99222.41
2022-08-16T13:44:55.898Z,99220.59
2022-08-16T13:47:44.025Z,99221.22
2022-08-16T13:50:51.364Z,99210.72
2022-08-16T13:53:44.123Z,99214.81
2022-08-16T13:56:38.942Z,99207.00
2022-08-16T13:59:31.410Z,99208.69
2022-08-16T14:02:26.149Z,99211.88
2022-08-16T14:05:20.092Z,99223.72
2022-08-16T14:08:13.174Z,99209.47
2022-08-16T14:11:11.720Z,99202.81
2022-08-16T14:14:05.523Z,99213.94
2022-08-16T14:17:01.235Z,99199.38
2022-08-16T14:19:52.395Z,99182.22
2022-08-16T14:22:52.409Z,99203.41
2022-08-16T14:25:54.102Z,99205.94
2022-08-16T14:28:44.780Z,99204.59
2022-08-16T14:31:39.362Z,99197.66
2022-08-16T14:34:30.049Z,99195.59
2022-08-16T14:37:21.967Z,99203.56
2022-08-16T14:40:16.122Z,99193.50
2022-08-16T14:43:11.530Z,99197.88
2022-08-16T14:46:08.317Z,99183.78
2022-08-16T14:49:00.465Z,99189.22
2022-08-16T14:51:52.223Z,99187.13
2022-08-16T14:54:45.885Z,99183.06
2022-08-16T14:57:37.589Z,99180.81
2022-08-16T15:00:32.843Z,99179.00
2022-08-16T15:03:25.511Z,99166.38
2022-08-16T15:06:17.077Z,99172.47
2022-08-16T15:09:07.953Z,99182.06
2022-08-16T15:12:07.570Z,99172.94
2022-08-16T15:15:20.566Z,99182.41
2022-08-16T15:18:14.375Z,99157.78
2022-08-16T15:21:16.687Z,99171.16
2022-08-16T15:24:06.455Z,99175.34
2022-08-16T15:27:06.280Z,99166.91
2022-08-16T15:30:02.620Z,99174.56
2022-08-16T15:33:19.621Z,99176.22
2022-08-16T15:36:17.713Z,99172.34
2022-08-16T15:39:35.655Z,99184.22
2022-08-16T15:42:27.658Z,99180.13
2022-08-16T15:45:41.283Z,99172.41
2022-08-16T15:48:34.430Z,99177.53
2022-08-16T15:51:31.222Z,99168.66
2022-08-16T15:54:30.676Z,99173.78
2022-08-16T15:57:30.318Z,99170.66
2022-08-16T16:00:33.478Z,99180.41
2022-08-16T16:03:27.206Z,99187.97
2022-08-16T16:06:20.265Z,99184.94
2022-08-16T16:09:20.893Z,99181.50
2022-08-16T16:12:53.000Z,99186.44
2022-08-16T16:15:50.222Z,99182.69
2022-08-16T16:18:40.940Z,99186.31
2022-08-16T16:21:42.364Z,99179.84
2022-08-16T16:24:36.110Z,99181.03
2022-08-16T16:27:27.753Z,99186.59
2022-08-16T16:30:37.388Z,99181.66
2022-08-16T16:33:34.087Z,99177.09
2022-08-16T16:36:29.632Z,99170.31
2022-08-16T16:39:19.268Z,99172.69
2022-08-16T16:42:11.019Z,99171.94
2022-08-16T16:45:21.679Z,99173.03
2022-08-16T16:48:14.613Z,99166.41
2022-08-16T16:51:10.387Z,99171.09
2022-08-16T16:54:05.233Z,99176.72
2022-08-16T16:56:57.938Z,99176.41
2022-08-16T16:59:48.553Z,99171.13
2022-08-16T17:02:53.800Z,99167.59
2022-08-16T17:05:51.048Z,99168.34
2022-08-16T17:08:51.346Z,99180.50
2022-08-16T17:11:45.184Z,99176.16
2022-08-16T17:14:38.484Z,99171.13
2022-08-16T17:17:59.107Z,99165.28
2022-08-16T17:20:44.753Z,99175.06
2022-08-16T17:23:58.389Z,99170.69
2022-08-16T17:26:48.809Z,99166.59
2022-08-16T17:30:00.986Z,99174.38
2022-08-16T17:33:01.528Z,99177.16
2022-08-16T17:35:56.111Z,99171.47
2022-08-16T17:38:49.457Z,99177.97
2022-08-16T17:41:39.714Z,99176.28
2022-08-16T17:44:31.207Z,99173.28
2022-08-16T17:47:24.185Z,99172.94
2022-08-16T17:50:16.715Z,99173.63
2022-08-16T17:53:10.003Z,99174.56
2022-08-16T17:56:02.097Z,99178.81
2022-08-16T17:58:54.598Z,99177.56
2022-08-16T18:01:46.331Z,99185.69
2022-08-16T18:04:48.879Z,99183.84
2022-08-16T18:07:43.672Z,99185.25
2022-08-16T18:10:36.217Z,99186.47
2022-08-16T18:13:28.850Z,99188.47
2022-08-16T18:16:20.693Z,99181.84
2022-08-16T18:19:13.141Z,99191.31
2022-08-16T18:22:19.194Z,99193.84
2022-08-16T18:25:09.372Z,99188.97
2022-08-16T18:28:00.735Z,99183.38
2022-08-16T18:30:54.266Z,99191.16
2022-08-16T18:33:49.497Z,99188.03
2022-08-16T18:36:46.518Z,99195.16
2022-08-16T18:39:38.070Z,99190.53
2022-08-16T18:42:31.984Z,99194.19
2022-08-16T18:45:23.617Z,99198.19
2022-08-16T18:48:17.816Z,99194.97
2022-08-16T18:51:20.347Z,99190.31
2022-08-16T18:54:19.666Z,99197.97
2022-08-16T18:57:11.527Z,99197.25
2022-08-16T19:00:02.015Z,99207.94
2022-08-16T19:03:14.835Z,99207.44
2022-08-16T19:06:11.334Z,99192.94
2022-08-16T19:09:05.403Z,99204.19
2022-08-16T19:11:57.066Z,99207.97
2022-08-16T19:14:47.502Z,99211.97
2022-08-16T19:17:38.714Z,99206.16
2022-08-16T19:20:31.840Z,99210.34
2022-08-16T19:23:26.269Z,99222.88
2022-08-16T19:26:25.743Z,99215.72
2022-08-16T19:29:18.223Z,99221.22
2022-08-16T19:32:24.321Z,99229.16
2022-08-16T19:35:17.903Z,99229.19
2022-08-16T19:38:09.457Z,99233.88
2022-08-16T19:41:01.573Z,99244.28
2022-08-16T19:43:52.146Z,99244.06
2022-08-16T19:46:46.557Z,99244.22
2022-08-16T19:49:39.112Z,99252.50
2022-08-16T19:52:32.025Z,99245.28
2022-08-16T19:55:22.792Z,99256.06
2022-08-16T19:58:14.167Z,99265.84
2022-08-16T20:01:06.545Z,99258.84
2022-08-16T20:03:58.291Z,99266.31
2022-08-16T20:06:49.753Z,99259.22
2022-08-16T20:09:41.503Z,99267.53
2022-08-16T20:12:31.596Z,99275.59
2022-08-16T20:15:26.796Z,99271.22
2022-08-16T20:18:24.399Z,99268.16
2022-08-16T20:21:15.830Z,99260.16
2022-08-16T20:24:32.993Z,99276.75
2022-08-16T20:27:20.080Z,99276.13
2022-08-16T20:30:11.005Z,99281.94
2022-08-16T20:33:01.168Z,99280.38
2022-08-16T20:35:55.929Z,99271.72
2022-08-16T20:38:47.754Z,99279.25
2022-08-16T20:41:38.206Z,99272.06
2022-08-16T20:44:29.496Z,99280.16
2022-08-16T20:47:24.712Z,99290.13
2022-08-16T20:50:16.672Z,99286.09
2022-08-16T20:53:08.198Z,99287.94
2022-08-16T20:55:59.727Z,99288.72
2022-08-16T20:58:49.336Z,99292.41
2022-08-16T21:01:46.494Z,99292.97
2022-08-16T21:04:40.461Z,99294.25
2022-08-16T21:07:35.205Z,99293.09
2022-08-16T21:10:26.656Z,99297.56
2022-08-16T21:13:18.687Z,99298.13
2022-08-16T21:16:08.239Z,99297.28
2022-08-16T21:18:58.577Z,99298.06
2022-08-16T21:21:49.553Z,99302.09
2022-08-16T21:24:40.381Z,99301.13
2022-08-16T21:27:30.717Z,99297.97
2022-08-16T21:30:27.573Z,99310.50
2022-08-16T21:33:23.391Z,99309.31
2022-08-16T21:36:14.558Z,99306.81
2022-08-16T21:39:05.669Z,99306.19
2022-08-16T21:41:57.443Z,99305.00
2022-08-16T21:44:49.277Z,99305.00
2022-08-16T21:47:38.595Z,99312.25
2022-08-16T21:50:30.303Z,99309.78
2022-08-16T21:53:22.620Z,99311.41
2022-08-16T21:56:16.953Z,99305.56
2022-08-16T21:59:10.843Z,99306.84
2022-08-16T22:02:00.847Z,99308.81
2022-08-16T22:04:51.616Z,99309.38
2022-08-16T22:07:39.967Z,99302.97
2022-08-16T22:10:44.810Z,99314.59
2022-08-16T22:13:41.457Z,99313.69
2022-08-16T22:16:37.493Z,99325.63
2022-08-16T22:19:28.059Z,99310.72
2022-08-16T22:22:19.411Z,99320.50
2022-08-16T22:25:07.692Z,99312.88
2022-08-16T22:27:55.763Z,99313.75
2022-08-16T22:30:47.579Z,99317.75
2022-08-16T22:33:35.648Z,99291.88
2022-08-16T22:36:27.858Z,99315.84
2022-08-16T22:39:18.921Z,99313.13
2022-08-16T22:42:09.688Z,99316.69
2022-08-16T22:44:59.050Z,99322.81
2022-08-16T22:47:48.794Z,99330.25
2022-08-16T22:50:37.267Z,99326.22
2022-08-16T22:53:26.889Z,99313.97
2022-08-16T22:56:17.807Z,99314.44
2022-08-16T22:59:05.781Z,99313.44
2022-08-16T23:01:54.534Z,99322.22
2022-08-16T23:04:42.617Z,99312.09
2022-08-16T23:07:30.545Z,99317.03
2022-08-16T23:10:20.118Z,99307.16
2022-08-16T23:13:09.502Z,99321.13
2022-08-16T23:16:03.096Z,99320.16
2022-08-16T23:19:00.212Z,99307.16
2022-08-16T23:21:49.214Z,99322.84
2022-08-16T23:24:40.994Z,99317.06
2022-08-16T23:27:44.624Z,99322.28
2022-08-16T23:30:36.683Z,99320.06
2022-08-16T23:33:29.323Z,99319.09
2022-08-16T23:36:17.436Z,99313.47
2022-08-16T23:39:05.362Z,99324.72
2022-08-16T23:41:53.606Z,99311.94
2022-08-16T23:44:58.206Z,99308.31
2022-08-16T23:47:47.672Z,99299.31
2022-08-16T23:50:38.493Z,99271.31
2022-08-16T23:53:31.497Z,99290.28
2022-08-16T23:56:20.770Z,99279.03
2022-08-16T23:59:08.879Z,99290.56
